sensor_id;sensor_type;location;lat;lon;timestamp;P1;durP1;ratioP1;P2;durP2;ratioP2
9821;SDS011;4950;46.042;14.472;2023-11-18T00:02:14;11.30;;;5.30;;
9821;SDS011;4950;46.042;14.472;2023-11-18T00:04:41;8.45;;;4.78;;
9821;SDS011;4950;46.042;14.472;2023-11-18T00:07:07;9.48;;;4.72;;
9821;SDS011;4950;46.042;14.472;2023-11-18T00:09:34;10.18;;;4.72;;
9821;SDS011;4950;46.042;14.472;2023-11-18T00:12:02;12.77;;;5.30;;
9821;SDS011;4950;46.042;14.472;2023-11-18T00:14:29;9.60;;;4.45;;
9821;SDS011;4950;46.042;14.472;2023-11-18T00:16:56;10.88;;;4.95;;
9821;SDS011;4950;46.042;14.472;2023-11-18T00:19:25;10.68;;;5.10;;
9821;SDS011;4950;46.042;14.472;2023-11-18T00:21:52;7.97;;;4.25;;
9821;SDS011;4950;46.042;14.472;2023-11-18T00:24:18;12.05;;;4.53;;
9821;SDS011;4950;46.042;14.472;2023-11-18T00:26:46;9.82;;;5.00;;
9821;SDS011;4950;46.042;14.472;2023-11-18T00:29:13;12.75;;;5.13;;
9821;SDS011;4950;46.042;14.472;2023-11-18T00:31:39;8.75;;;4.90;;
9821;SDS011;4950;46.042;14.472;2023-11-18T00:34:06;12.65;;;4.65;;
9821;SDS011;4950;46.042;14.472;2023-11-18T00:36:34;14.07;;;5.85;;
9821;SDS011;4950;46.042;14.472;2023-11-18T00:39:01;11.93;;;5.78;;
9821;SDS011;4950;46.042;14.472;2023-11-18T00:41:29;11.90;;;5.90;;
9821;SDS011;4950;46.042;14.472;2023-11-18T00:43:56;11.30;;;6.00;;
9821;SDS011;4950;46.042;14.472;2023-11-18T00:46:22;11.73;;;6.25;;
9821;SDS011;4950;46.042;14.472;2023-11-18T00:48:49;12.10;;;6.10;;
9821;SDS011;4950;46.042;14.472;2023-11-18T00:51:16;11.57;;;5.78;;
9821;SDS011;4950;46.042;14.472;2023-11-18T00:53:46;9.38;;;5.50;;
9821;SDS011;4950;46.042;14.472;2023-11-18T00:56:15;11.85;;;5.10;;
9821;SDS011;4950;46.042;14.472;2023-11-18T01:01:09;7.70;;;4.05;;
9821;SDS011;4950;46.042;14.472;2023-11-18T01:03:36;12.48;;;5.30;;
9821;SDS011;4950;46.042;14.472;2023-11-18T01:06:06;20.48;;;6.95;;
9821;SDS011;4950;46.042;14.472;2023-11-18T01:08:33;12.27;;;4.70;;
9821;SDS011;4950;46.042;14.472;2023-11-18T01:11:00;11.85;;;5.40;;
9821;SDS011;4950;46.042;14.472;2023-11-18T01:13:29;9.55;;;5.13;;
9821;SDS011;4950;46.042;14.472;2023-11-18T01:15:56;10.10;;;4.30;;
9821;SDS011;4950;46.042;14.472;2023-11-18T01:18:23;12.32;;;5.15;;
9821;SDS011;4950;46.042;14.472;2023-11-18T01:20:50;11.50;;;5.03;;
9821;SDS011;4950;46.042;14.472;2023-11-18T01:23:17;20.38;;;7.45;;
9821;SDS011;4950;46.042;14.472;2023-11-18T01:25:44;18.00;;;6.75;;
9821;SDS011;4950;46.042;14.472;2023-11-18T01:28:12;12.68;;;5.47;;
9821;SDS011;4950;46.042;14.472;2023-11-18T01:30:40;12.80;;;4.78;;
9821;SDS011;4950;46.042;14.472;2023-11-18T01:33:09;9.90;;;4.90;;
9821;SDS011;4950;46.042;14.472;2023-11-18T01:35:36;8.80;;;4.00;;
9821;SDS011;4950;46.042;14.472;2023-11-18T01:38:04;7.63;;;3.70;;
9821;SDS011;4950;46.042;14.472;2023-11-18T01:40:30;10.13;;;4.15;;
9821;SDS011;4950;46.042;14.472;2023-11-18T01:42:57;8.40;;;3.92;;
9821;SDS011;4950;46.042;14.472;2023-11-18T01:45:25;9.82;;;4.00;;
9821;SDS011;4950;46.042;14.472;2023-11-18T01:47:52;7.15;;;3.75;;
9821;SDS011;4950;46.042;14.472;2023-11-18T01:50:19;8.45;;;3.28;;
9821;SDS011;4950;46.042;14.472;2023-11-18T01:52:46;7.10;;;3.65;;
9821;SDS011;4950;46.042;14.472;2023-11-18T01:55:14;7.68;;;3.67;;
9821;SDS011;4950;46.042;14.472;2023-11-18T01:57:42;6.03;;;3.03;;
9821;SDS011;4950;46.042;14.472;2023-11-18T02:00:10;7.32;;;3.42;;
9821;SDS011;4950;46.042;14.472;2023-11-18T02:02:39;7.97;;;3.75;;
9821;SDS011;4950;46.042;14.472;2023-11-18T02:05:06;7.88;;;3.33;;
9821;SDS011;4950;46.042;14.472;2023-11-18T02:07:33;9.75;;;3.92;;
9821;SDS011;4950;46.042;14.472;2023-11-18T02:10:02;9.55;;;4.28;;
9821;SDS011;4950;46.042;14.472;2023-11-18T02:12:36;10.27;;;3.97;;
9821;SDS011;4950;46.042;14.472;2023-11-18T02:15:09;17.75;;;6.82;;
9821;SDS011;4950;46.042;14.472;2023-11-18T02:17:38;12.55;;;5.70;;
9821;SDS011;4950;46.042;14.472;2023-11-18T02:20:08;11.35;;;4.28;;
9821;SDS011;4950;46.042;14.472;2023-11-18T02:22:41;11.73;;;3.47;;
9821;SDS011;4950;46.042;14.472;2023-11-18T02:25:09;7.45;;;3.80;;
9821;SDS011;4950;46.042;14.472;2023-11-18T02:27:40;11.77;;;4.30;;
9821;SDS011;4950;46.042;14.472;2023-11-18T02:30:08;8.50;;;3.78;;
9821;SDS011;4950;46.042;14.472;2023-11-18T02:32:39;9.85;;;3.88;;
9821;SDS011;4950;46.042;14.472;2023-11-18T02:35:13;9.30;;;3.80;;
9821;SDS011;4950;46.042;14.472;2023-11-18T02:37:45;7.70;;;3.40;;
9821;SDS011;4950;46.042;14.472;2023-11-18T02:40:19;7.28;;;3.28;;
9821;SDS011;4950;46.042;14.472;2023-11-18T02:42:51;14.55;;;5.28;;
9821;SDS011;4950;46.042;14.472;2023-11-18T02:45:20;23.90;;;6.45;;
9821;SDS011;4950;46.042;14.472;2023-11-18T02:47:47;15.10;;;5.78;;
9821;SDS011;4950;46.042;14.472;2023-11-18T02:50:14;9.27;;;4.03;;
9821;SDS011;4950;46.042;14.472;2023-11-18T02:52:41;9.77;;;3.78;;
9821;SDS011;4950;46.042;14.472;2023-11-18T02:55:08;6.78;;;3.63;;
9821;SDS011;4950;46.042;14.472;2023-11-18T02:57:36;7.63;;;3.63;;
9821;SDS011;4950;46.042;14.472;2023-11-18T03:00:05;9.57;;;3.60;;
9821;SDS011;4950;46.042;14.472;2023-11-18T03:02:37;9.13;;;3.35;;
9821;SDS011;4950;46.042;14.472;2023-11-18T03:05:04;5.97;;;3.13;;
9821;SDS011;4950;46.042;14.472;2023-11-18T03:07:32;7.50;;;3.35;;
9821;SDS011;4950;46.042;14.472;2023-11-18T03:09:59;8.85;;;3.92;;
9821;SDS011;4950;46.042;14.472;2023-11-18T03:12:26;8.18;;;3.75;;
9821;SDS011;4950;46.042;14.472;2023-11-18T03:14:53;10.65;;;4.50;;
9821;SDS011;4950;46.042;14.472;2023-11-18T03:17:21;15.32;;;5.10;;
9821;SDS011;4950;46.042;14.472;2023-11-18T03:19:48;11.82;;;4.88;;
9821;SDS011;4950;46.042;14.472;2023-11-18T03:22:15;13.13;;;4.43;;
9821;SDS011;4950;46.042;14.472;2023-11-18T03:24:42;8.00;;;4.30;;
9821;SDS011;4950;46.042;14.472;2023-11-18T03:27:09;10.32;;;3.60;;
9821;SDS011;4950;46.042;14.472;2023-11-18T03:29:35;7.22;;;3.95;;
9821;SDS011;4950;46.042;14.472;2023-11-18T03:32:02;7.97;;;3.90;;
9821;SDS011;4950;46.042;14.472;2023-11-18T03:34:31;9.35;;;4.22;;
9821;SDS011;4950;46.042;14.472;2023-11-18T03:36:59;9.05;;;3.35;;
9821;SDS011;4950;46.042;14.472;2023-11-18T03:39:25;9.13;;;3.45;;
9821;SDS011;4950;46.042;14.472;2023-11-18T03:41:53;6.40;;;3.08;;
9821;SDS011;4950;46.042;14.472;2023-11-18T03:44:22;6.82;;;3.13;;
9821;SDS011;4950;46.042;14.472;2023-11-18T03:46:49;7.47;;;2.90;;
9821;SDS011;4950;46.042;14.472;2023-11-18T03:49:16;8.38;;;3.40;;
9821;SDS011;4950;46.042;14.472;2023-11-18T03:51:44;16.88;;;5.68;;
9821;SDS011;4950;46.042;14.472;2023-11-18T03:54:11;17.88;;;6.03;;
9821;SDS011;4950;46.042;14.472;2023-11-18T03:56:38;13.60;;;5.95;;
9821;SDS011;4950;46.042;14.472;2023-11-18T03:59:05;9.83;;;4.30;;
9821;SDS011;4950;46.042;14.472;2023-11-18T04:01:31;10.63;;;4.70;;
9821;SDS011;4950;46.042;14.472;2023-11-18T04:03:59;9.50;;;3.95;;
9821;SDS011;4950;46.042;14.472;2023-11-18T04:06:26;7.30;;;3.60;;
9821;SDS011;4950;46.042;14.472;2023-11-18T04:08:54;8.05;;;3.45;;
9821;SDS011;4950;46.042;14.472;2023-11-18T04:11:21;8.07;;;3.90;;
9821;SDS011;4950;46.042;14.472;2023-11-18T04:13:47;8.43;;;3.53;;
9821;SDS011;4950;46.042;14.472;2023-11-18T04:16:14;8.98;;;4.28;;
9821;SDS011;4950;46.042;14.472;2023-11-18T04:18:42;8.20;;;3.40;;
9821;SDS011;4950;46.042;14.472;2023-11-18T04:21:10;7.40;;;2.70;;
9821;SDS011;4950;46.042;14.472;2023-11-18T04:23:40;6.23;;;2.57;;
9821;SDS011;4950;46.042;14.472;2023-11-18T04:26:09;3.72;;;2.10;;
9821;SDS011;4950;46.042;14.472;2023-11-18T04:28:37;7.50;;;2.28;;
9821;SDS011;4950;46.042;14.472;2023-11-18T04:31:04;6.60;;;2.30;;
9821;SDS011;4950;46.042;14.472;2023-11-18T04:33:31;5.70;;;2.20;;
9821;SDS011;4950;46.042;14.472;2023-11-18T04:35:59;6.23;;;2.23;;
9821;SDS011;4950;46.042;14.472;2023-11-18T04:38:25;14.07;;;4.90;;
9821;SDS011;4950;46.042;14.472;2023-11-18T04:40:52;24.13;;;10.00;;
9821;SDS011;4950;46.042;14.472;2023-11-18T04:43:21;34.80;;;13.40;;
9821;SDS011;4950;46.042;14.472;2023-11-18T04:45:48;25.88;;;11.15;;
9821;SDS011;4950;46.042;14.472;2023-11-18T04:48:15;27.57;;;11.80;;
9821;SDS011;4950;46.042;14.472;2023-11-18T04:50:42;41.23;;;16.90;;
9821;SDS011;4950;46.042;14.472;2023-11-18T04:53:09;30.30;;;12.43;;
9821;SDS011;4950;46.042;14.472;2023-11-18T04:55:36;28.23;;;12.30;;
9821;SDS011;4950;46.042;14.472;2023-11-18T04:58:02;22.33;;;9.60;;
9821;SDS011;4950;46.042;14.472;2023-11-18T05:00:32;18.15;;;7.82;;
9821;SDS011;4950;46.042;14.472;2023-11-18T05:02:59;17.37;;;6.90;;
9821;SDS011;4950;46.042;14.472;2023-11-18T05:05:26;17.20;;;7.73;;
9821;SDS011;4950;46.042;14.472;2023-11-18T05:07:52;14.50;;;6.90;;
9821;SDS011;4950;46.042;14.472;2023-11-18T05:10:19;15.63;;;8.10;;
9821;SDS011;4950;46.042;14.472;2023-11-18T05:12:46;14.17;;;6.87;;
9821;SDS011;4950;46.042;14.472;2023-11-18T05:15:20;12.97;;;6.37;;
9821;SDS011;4950;46.042;14.472;2023-11-18T05:17:51;11.98;;;5.60;;
9821;SDS011;4950;46.042;14.472;2023-11-18T05:20:18;9.50;;;4.40;;
9821;SDS011;4950;46.042;14.472;2023-11-18T05:22:45;11.97;;;4.70;;
9821;SDS011;4950;46.042;14.472;2023-11-18T05:25:12;10.90;;;4.37;;
9821;SDS011;4950;46.042;14.472;2023-11-18T05:27:39;8.93;;;3.40;;
9821;SDS011;4950;46.042;14.472;2023-11-18T05:30:06;15.37;;;6.00;;
9821;SDS011;4950;46.042;14.472;2023-11-18T05:32:34;11.03;;;4.83;;
9821;SDS011;4950;46.042;14.472;2023-11-18T05:35:03;12.53;;;4.57;;
9821;SDS011;4950;46.042;14.472;2023-11-18T05:37:30;15.55;;;4.30;;
9821;SDS011;4950;46.042;14.472;2023-11-18T05:40:00;10.83;;;4.47;;
9821;SDS011;4950;46.042;14.472;2023-11-18T05:42:32;8.70;;;4.03;;
9821;SDS011;4950;46.042;14.472;2023-11-18T05:44:59;8.27;;;4.03;;
9821;SDS011;4950;46.042;14.472;2023-11-18T05:47:26;8.97;;;3.97;;
9821;SDS011;4950;46.042;14.472;2023-11-18T05:49:53;11.80;;;4.77;;
9821;SDS011;4950;46.042;14.472;2023-11-18T05:52:21;13.37;;;4.93;;
9821;SDS011;4950;46.042;14.472;2023-11-18T05:54:48;8.70;;;4.40;;
9821;SDS011;4950;46.042;14.472;2023-11-18T05:57:15;12.13;;;4.93;;
9821;SDS011;4950;46.042;14.472;2023-11-18T05:59:42;11.47;;;4.63;;
9821;SDS011;4950;46.042;14.472;2023-11-18T06:02:09;9.73;;;3.93;;
9821;SDS011;4950;46.042;14.472;2023-11-18T06:04:38;10.38;;;4.03;;
9821;SDS011;4950;46.042;14.472;2023-11-18T06:07:07;21.43;;;6.13;;
9821;SDS011;4950;46.042;14.472;2023-11-18T06:09:35;12.67;;;5.37;;
9821;SDS011;4950;46.042;14.472;2023-11-18T06:12:02;12.30;;;5.67;;
9821;SDS011;4950;46.042;14.472;2023-11-18T06:14:34;14.07;;;5.47;;
9821;SDS011;4950;46.042;14.472;2023-11-18T06:17:00;12.50;;;6.20;;
9821;SDS011;4950;46.042;14.472;2023-11-18T06:19:27;11.00;;;5.53;;
9821;SDS011;4950;46.042;14.472;2023-11-18T06:21:54;17.47;;;5.83;;
9821;SDS011;4950;46.042;14.472;2023-11-18T06:24:20;12.43;;;5.63;;
9821;SDS011;4950;46.042;14.472;2023-11-18T06:26:49;10.87;;;5.80;;
9821;SDS011;4950;46.042;14.472;2023-11-18T06:29:15;11.83;;;5.50;;
9821;SDS011;4950;46.042;14.472;2023-11-18T06:31:42;10.57;;;5.60;;
9821;SDS011;4950;46.042;14.472;2023-11-18T06:34:09;10.27;;;5.47;;
9821;SDS011;4950;46.042;14.472;2023-11-18T06:36:37;10.40;;;5.53;;
9821;SDS011;4950;46.042;14.472;2023-11-18T06:39:04;11.97;;;5.43;;
9821;SDS011;4950;46.042;14.472;2023-11-18T06:41:32;11.27;;;5.83;;
9821;SDS011;4950;46.042;14.472;2023-11-18T06:44:03;11.53;;;6.07;;
9821;SDS011;4950;46.042;14.472;2023-11-18T06:46:37;16.43;;;5.57;;
9821;SDS011;4950;46.042;14.472;2023-11-18T06:49:05;11.67;;;4.97;;
9821;SDS011;4950;46.042;14.472;2023-11-18T06:51:33;19.40;;;5.13;;
9821;SDS011;4950;46.042;14.472;2023-11-18T06:54:03;19.57;;;5.67;;
9821;SDS011;4950;46.042;14.472;2023-11-18T06:56:34;12.10;;;5.37;;
9821;SDS011;4950;46.042;14.472;2023-11-18T06:59:04;11.93;;;5.72;;
9821;SDS011;4950;46.042;14.472;2023-11-18T07:01:31;12.35;;;5.68;;
9821;SDS011;4950;46.042;14.472;2023-11-18T07:03:58;12.73;;;6.07;;
9821;SDS011;4950;46.042;14.472;2023-11-18T07:06:25;19.83;;;7.03;;
9821;SDS011;4950;46.042;14.472;2023-11-18T07:08:53;13.60;;;6.13;;
9821;SDS011;4950;46.042;14.472;2023-11-18T07:11:21;29.02;;;7.85;;
9821;SDS011;4950;46.042;14.472;2023-11-18T07:13:48;17.63;;;6.43;;
9821;SDS011;4950;46.042;14.472;2023-11-18T07:16:16;17.77;;;6.07;;
9821;SDS011;4950;46.042;14.472;2023-11-18T07:18:44;19.43;;;6.17;;
9821;SDS011;4950;46.042;14.472;2023-11-18T07:21:10;22.33;;;5.57;;
9821;SDS011;4950;46.042;14.472;2023-11-18T07:23:37;11.53;;;4.90;;
9821;SDS011;4950;46.042;14.472;2023-11-18T07:26:04;12.50;;;5.30;;
9821;SDS011;4950;46.042;14.472;2023-11-18T07:28:31;10.30;;;4.93;;
9821;SDS011;4950;46.042;14.472;2023-11-18T07:30:57;12.57;;;4.80;;
9821;SDS011;4950;46.042;14.472;2023-11-18T07:33:26;17.83;;;5.97;;
9821;SDS011;4950;46.042;14.472;2023-11-18T07:35:53;15.73;;;5.50;;
9821;SDS011;4950;46.042;14.472;2023-11-18T07:38:20;21.57;;;6.20;;
9821;SDS011;4950;46.042;14.472;2023-11-18T07:40:46;23.63;;;5.97;;
9821;SDS011;4950;46.042;14.472;2023-11-18T07:43:13;9.40;;;4.30;;
9821;SDS011;4950;46.042;14.472;2023-11-18T07:45:41;9.67;;;4.73;;
9821;SDS011;4950;46.042;14.472;2023-11-18T07:48:08;11.47;;;4.57;;
9821;SDS011;4950;46.042;14.472;2023-11-18T07:50:38;9.87;;;4.20;;
9821;SDS011;4950;46.042;14.472;2023-11-18T07:55:33;8.47;;;3.67;;
9821;SDS011;4950;46.042;14.472;2023-11-18T07:58:00;14.00;;;4.63;;
9821;SDS011;4950;46.042;14.472;2023-11-18T08:00:27;7.97;;;3.70;;
9821;SDS011;4950;46.042;14.472;2023-11-18T08:02:56;11.07;;;3.78;;
9821;SDS011;4950;46.042;14.472;2023-11-18T08:05:25;8.40;;;4.03;;
9821;SDS011;4950;46.042;14.472;2023-11-18T08:07:54;9.20;;;3.90;;
9821;SDS011;4950;46.042;14.472;2023-11-18T08:10:21;10.23;;;4.25;;
9821;SDS011;4950;46.042;14.472;2023-11-18T08:12:50;12.73;;;3.97;;
9821;SDS011;4950;46.042;14.472;2023-11-18T08:15:17;10.23;;;3.95;;
9821;SDS011;4950;46.042;14.472;2023-11-18T08:17:44;14.68;;;5.15;;
9821;SDS011;4950;46.042;14.472;2023-11-18T08:20:11;13.55;;;4.78;;
9821;SDS011;4950;46.042;14.472;2023-11-18T08:22:39;12.52;;;4.28;;
9821;SDS011;4950;46.042;14.472;2023-11-18T08:25:08;10.50;;;4.47;;
9821;SDS011;4950;46.042;14.472;2023-11-18T08:27:35;10.25;;;4.50;;
9821;SDS011;4950;46.042;14.472;2023-11-18T08:30:01;13.18;;;4.10;;
9821;SDS011;4950;46.042;14.472;2023-11-18T08:32:31;8.18;;;3.35;;
9821;SDS011;4950;46.042;14.472;2023-11-18T08:34:57;10.57;;;3.65;;
9821;SDS011;4950;46.042;14.472;2023-11-18T08:37:25;7.97;;;3.03;;
9821;SDS011;4950;46.042;14.472;2023-11-18T08:39:53;11.80;;;3.92;;
9821;SDS011;4950;46.042;14.472;2023-11-18T08:42:21;6.88;;;3.40;;
9821;SDS011;4950;46.042;14.472;2023-11-18T08:44:47;10.38;;;3.08;;
9821;SDS011;4950;46.042;14.472;2023-11-18T08:47:14;6.07;;;2.40;;
9821;SDS011;4950;46.042;14.472;2023-11-18T08:49:42;8.95;;;3.15;;
9821;SDS011;4950;46.042;14.472;2023-11-18T08:52:11;10.48;;;3.45;;
9821;SDS011;4950;46.042;14.472;2023-11-18T08:54:38;13.88;;;4.10;;
9821;SDS011;4950;46.042;14.472;2023-11-18T08:57:26;16.75;;;3.55;;
9821;SDS011;4950;46.042;14.472;2023-11-18T08:59:59;10.00;;;3.35;;
9821;SDS011;4950;46.042;14.472;2023-11-18T09:02:32;6.10;;;3.30;;
9821;SDS011;4950;46.042;14.472;2023-11-18T09:05:02;5.57;;;2.97;;
9821;SDS011;4950;46.042;14.472;2023-11-18T09:07:37;9.88;;;3.50;;
9821;SDS011;4950;46.042;14.472;2023-11-18T09:10:05;9.40;;;3.75;;
9821;SDS011;4950;46.042;14.472;2023-11-18T09:12:35;9.30;;;3.58;;
9821;SDS011;4950;46.042;14.472;2023-11-18T09:15:02;8.88;;;3.78;;
9821;SDS011;4950;46.042;14.472;2023-11-18T09:17:29;6.63;;;3.83;;
9821;SDS011;4950;46.042;14.472;2023-11-18T09:19:55;9.70;;;4.78;;
9821;SDS011;4950;46.042;14.472;2023-11-18T09:22:22;9.57;;;4.82;;
9821;SDS011;4950;46.042;14.472;2023-11-18T09:24:49;9.55;;;4.07;;
9821;SDS011;4950;46.042;14.472;2023-11-18T09:27:16;9.80;;;4.22;;
9821;SDS011;4950;46.042;14.472;2023-11-18T09:29:44;7.22;;;4.05;;
9821;SDS011;4950;46.042;14.472;2023-11-18T09:32:13;8.93;;;4.82;;
9821;SDS011;4950;46.042;14.472;2023-11-18T09:34:40;6.70;;;3.78;;
9821;SDS011;4950;46.042;14.472;2023-11-18T09:37:07;8.63;;;3.70;;
9821;SDS011;4950;46.042;14.472;2023-11-18T09:39:34;7.78;;;4.40;;
9821;SDS011;4950;46.042;14.472;2023-11-18T09:42:05;9.63;;;4.00;;
9821;SDS011;4950;46.042;14.472;2023-11-18T09:44:35;11.63;;;3.90;;
9821;SDS011;4950;46.042;14.472;2023-11-18T09:47:07;8.02;;;3.50;;
9821;SDS011;4950;46.042;14.472;2023-11-18T09:49:39;6.57;;;3.75;;
9821;SDS011;4950;46.042;14.472;2023-11-18T09:52:09;12.90;;;4.60;;
9821;SDS011;4950;46.042;14.472;2023-11-18T09:54:45;11.23;;;4.60;;
9821;SDS011;4950;46.042;14.472;2023-11-18T09:57:23;10.88;;;5.80;;
9821;SDS011;4950;46.042;14.472;2023-11-18T10:00:00;10.10;;;5.07;;
9821;SDS011;4950;46.042;14.472;2023-11-18T10:02:38;10.32;;;4.93;;
9821;SDS011;4950;46.042;14.472;2023-11-18T10:05:06;12.57;;;4.55;;
9821;SDS011;4950;46.042;14.472;2023-11-18T10:07:37;9.65;;;4.72;;
9821;SDS011;4950;46.042;14.472;2023-11-18T10:10:06;7.97;;;4.10;;
9821;SDS011;4950;46.042;14.472;2023-11-18T10:12:39;11.90;;;4.30;;
9821;SDS011;4950;46.042;14.472;2023-11-18T10:15:07;7.75;;;4.35;;
9821;SDS011;4950;46.042;14.472;2023-11-18T10:17:38;8.60;;;3.65;;
9821;SDS011;4950;46.042;14.472;2023-11-18T10:20:20;7.75;;;3.92;;
9821;SDS011;4950;46.042;14.472;2023-11-18T10:22:51;9.60;;;4.00;;
9821;SDS011;4950;46.042;14.472;2023-11-18T10:25:32;8.70;;;4.50;;
9821;SDS011;4950;46.042;14.472;2023-11-18T10:28:00;9.65;;;4.28;;
9821;SDS011;4950;46.042;14.472;2023-11-18T10:30:27;7.78;;;4.45;;
9821;SDS011;4950;46.042;14.472;2023-11-18T10:32:59;9.15;;;4.78;;
9821;SDS011;4950;46.042;14.472;2023-11-18T10:35:31;7.10;;;3.85;;
9821;SDS011;4950;46.042;14.472;2023-11-18T10:38:01;12.85;;;5.03;;
9821;SDS011;4950;46.042;14.472;2023-11-18T10:40:31;9.32;;;4.20;;
9821;SDS011;4950;46.042;14.472;2023-11-18T10:43:00;9.10;;;4.55;;
9821;SDS011;4950;46.042;14.472;2023-11-18T10:45:27;9.85;;;5.20;;
9821;SDS011;4950;46.042;14.472;2023-11-18T10:47:54;11.15;;;6.32;;
9821;SDS011;4950;46.042;14.472;2023-11-18T10:50:23;8.57;;;4.63;;
9821;SDS011;4950;46.042;14.472;2023-11-18T10:52:57;7.63;;;4.45;;
9821;SDS011;4950;46.042;14.472;2023-11-18T10:55:34;12.27;;;4.53;;
9821;SDS011;4950;46.042;14.472;2023-11-18T10:58:01;8.27;;;4.32;;
9821;SDS011;4950;46.042;14.472;2023-11-18T11:00:29;8.55;;;4.50;;
9821;SDS011;4950;46.042;14.472;2023-11-18T11:03:12;7.82;;;3.80;;
9821;SDS011;4950;46.042;14.472;2023-11-18T11:05:40;9.93;;;4.13;;
9821;SDS011;4950;46.042;14.472;2023-11-18T11:08:09;9.07;;;3.70;;
9821;SDS011;4950;46.042;14.472;2023-11-18T11:10:39;7.25;;;3.78;;
9821;SDS011;4950;46.042;14.472;2023-11-18T11:13:07;8.93;;;4.40;;
9821;SDS011;4950;46.042;14.472;2023-11-18T11:15:36;7.38;;;3.80;;
9821;SDS011;4950;46.042;14.472;2023-11-18T11:18:10;7.85;;;4.03;;
9821;SDS011;4950;46.042;14.472;2023-11-18T11:20:49;8.35;;;4.30;;
9821;SDS011;4950;46.042;14.472;2023-11-18T11:23:31;11.65;;;4.35;;
9821;SDS011;4950;46.042;14.472;2023-11-18T11:26:12;8.68;;;3.97;;
9821;SDS011;4950;46.042;14.472;2023-11-18T11:28:47;8.18;;;3.65;;
9821;SDS011;4950;46.042;14.472;2023-11-18T11:31:23;10.50;;;4.38;;
9821;SDS011;4950;46.042;14.472;2023-11-18T11:33:57;7.00;;;3.70;;
9821;SDS011;4950;46.042;14.472;2023-11-18T11:36:37;9.23;;;4.57;;
9821;SDS011;4950;46.042;14.472;2023-11-18T11:39:08;7.50;;;4.15;;
9821;SDS011;4950;46.042;14.472;2023-11-18T11:41:41;13.75;;;3.83;;
9821;SDS011;4950;46.042;14.472;2023-11-18T11:44:11;7.68;;;4.20;;
9821;SDS011;4950;46.042;14.472;2023-11-18T11:46:39;9.65;;;3.97;;
9821;SDS011;4950;46.042;14.472;2023-11-18T11:49:07;8.13;;;3.83;;
9821;SDS011;4950;46.042;14.472;2023-11-18T11:51:48;8.68;;;3.80;;
9821;SDS011;4950;46.042;14.472;2023-11-18T11:54:20;8.70;;;4.40;;
9821;SDS011;4950;46.042;14.472;2023-11-18T11:56:55;9.15;;;3.65;;
9821;SDS011;4950;46.042;14.472;2023-11-18T12:02:21;7.47;;;3.90;;
9821;SDS011;4950;46.042;14.472;2023-11-18T12:04:51;7.30;;;3.85;;
9821;SDS011;4950;46.042;14.472;2023-11-18T12:07:22;5.93;;;3.47;;
9821;SDS011;4950;46.042;14.472;2023-11-18T12:09:54;8.02;;;3.65;;
9821;SDS011;4950;46.042;14.472;2023-11-18T12:12:23;5.60;;;3.25;;
9821;SDS011;4950;46.042;14.472;2023-11-18T12:14:52;9.20;;;3.80;;
9821;SDS011;4950;46.042;14.472;2023-11-18T12:17:21;9.07;;;3.55;;
9821;SDS011;4950;46.042;14.472;2023-11-18T12:19:49;7.20;;;3.78;;
9821;SDS011;4950;46.042;14.472;2023-11-18T12:22:25;6.80;;;3.50;;
9821;SDS011;4950;46.042;14.472;2023-11-18T12:27:57;17.42;;;5.40;;
9821;SDS011;4950;46.042;14.472;2023-11-18T12:30:39;8.70;;;4.13;;
9821;SDS011;4950;46.042;14.472;2023-11-18T12:33:21;5.53;;;3.17;;
9821;SDS011;4950;46.042;14.472;2023-11-18T12:42:20;8.55;;;3.78;;
9821;SDS011;4950;46.042;14.472;2023-11-18T12:45:12;12.50;;;3.55;;
9821;SDS011;4950;46.042;14.472;2023-11-18T12:48:06;6.25;;;3.50;;
9821;SDS011;4950;46.042;14.472;2023-11-18T12:50:40;5.82;;;3.60;;
9821;SDS011;4950;46.042;14.472;2023-11-18T12:53:09;6.60;;;3.28;;
9821;SDS011;4950;46.042;14.472;2023-11-18T12:55:41;7.47;;;3.45;;
9821;SDS011;4950;46.042;14.472;2023-11-18T12:58:08;7.10;;;3.47;;
9821;SDS011;4950;46.042;14.472;2023-11-18T13:00:39;12.65;;;3.72;;
9821;SDS011;4950;46.042;14.472;2023-11-18T13:03:08;5.95;;;3.40;;
9821;SDS011;4950;46.042;14.472;2023-11-18T13:05:36;7.05;;;3.58;;
9821;SDS011;4950;46.042;14.472;2023-11-18T13:08:03;8.52;;;3.67;;
9821;SDS011;4950;46.042;14.472;2023-11-18T13:10:30;8.07;;;3.38;;
9821;SDS011;4950;46.042;14.472;2023-11-18T13:12:59;15.90;;;4.47;;
9821;SDS011;4950;46.042;14.472;2023-11-18T13:15:25;7.35;;;3.47;;
9821;SDS011;4950;46.042;14.472;2023-11-18T13:17:58;11.82;;;4.03;;
9821;SDS011;4950;46.042;14.472;2023-11-18T13:20:26;8.38;;;3.50;;
9821;SDS011;4950;46.042;14.472;2023-11-18T13:22:54;7.88;;;3.55;;
9821;SDS011;4950;46.042;14.472;2023-11-18T13:25:20;6.13;;;3.85;;
9821;SDS011;4950;46.042;14.472;2023-11-18T13:27:48;6.78;;;3.47;;
9821;SDS011;4950;46.042;14.472;2023-11-18T13:30:17;6.90;;;4.05;;
9821;SDS011;4950;46.042;14.472;2023-11-18T13:32:45;9.90;;;4.47;;
9821;SDS011;4950;46.042;14.472;2023-11-18T13:35:14;8.00;;;3.65;;
9821;SDS011;4950;46.042;14.472;2023-11-18T13:37:45;7.88;;;3.90;;
9821;SDS011;4950;46.042;14.472;2023-11-18T13:40:14;17.00;;;5.22;;
9821;SDS011;4950;46.042;14.472;2023-11-18T13:45:12;23.73;;;11.15;;
9821;SDS011;4950;46.042;14.472;2023-11-18T13:47:49;14.43;;;7.68;;
9821;SDS011;4950;46.042;14.472;2023-11-18T13:50:17;15.88;;;8.43;;
9821;SDS011;4950;46.042;14.472;2023-11-18T13:52:44;14.18;;;6.88;;
9821;SDS011;4950;46.042;14.472;2023-11-18T13:55:12;11.18;;;5.75;;
9821;SDS011;4950;46.042;14.472;2023-11-18T13:57:47;9.55;;;5.53;;
9821;SDS011;4950;46.042;14.472;2023-11-18T14:00:14;9.98;;;5.22;;
9821;SDS011;4950;46.042;14.472;2023-11-18T14:02:42;27.77;;;12.75;;
9821;SDS011;4950;46.042;14.472;2023-11-18T14:05:17;21.35;;;9.57;;
9821;SDS011;4950;46.042;14.472;2023-11-18T14:07:47;13.45;;;7.78;;
9821;SDS011;4950;46.042;14.472;2023-11-18T14:10:13;14.45;;;6.90;;
9821;SDS011;4950;46.042;14.472;2023-11-18T14:15:26;21.17;;;8.85;;
9821;SDS011;4950;46.042;14.472;2023-11-18T14:17:53;16.23;;;7.90;;
9821;SDS011;4950;46.042;14.472;2023-11-18T14:20:21;16.10;;;6.50;;
9821;SDS011;4950;46.042;14.472;2023-11-18T14:22:48;10.80;;;6.15;;
9821;SDS011;4950;46.042;14.472;2023-11-18T14:25:16;13.75;;;6.00;;
9821;SDS011;4950;46.042;14.472;2023-11-18T14:27:43;11.30;;;5.40;;
9821;SDS011;4950;46.042;14.472;2023-11-18T14:30:11;9.27;;;4.97;;
9821;SDS011;4950;46.042;14.472;2023-11-18T14:32:38;10.02;;;4.85;;
9821;SDS011;4950;46.042;14.472;2023-11-18T14:35:05;9.65;;;5.10;;
9821;SDS011;4950;46.042;14.472;2023-11-18T14:37:38;13.70;;;5.05;;
9821;SDS011;4950;46.042;14.472;2023-11-18T14:40:07;11.63;;;4.10;;
9821;SDS011;4950;46.042;14.472;2023-11-18T14:42:39;8.95;;;3.90;;
9821;SDS011;4950;46.042;14.472;2023-11-18T14:45:09;13.98;;;5.05;;
9821;SDS011;4950;46.042;14.472;2023-11-18T14:47:37;13.27;;;5.40;;
9821;SDS011;4950;46.042;14.472;2023-11-18T14:50:05;14.38;;;6.88;;
9821;SDS011;4950;46.042;14.472;2023-11-18T14:52:41;14.98;;;6.93;;
9821;SDS011;4950;46.042;14.472;2023-11-18T14:55:10;15.05;;;6.78;;
9821;SDS011;4950;46.042;14.472;2023-11-18T14:57:38;12.98;;;6.10;;
9821;SDS011;4950;46.042;14.472;2023-11-18T15:00:06;12.10;;;6.60;;
9821;SDS011;4950;46.042;14.472;2023-11-18T15:02:44;15.33;;;6.53;;
9821;SDS011;4950;46.042;14.472;2023-11-18T15:05:14;12.60;;;6.60;;
9821;SDS011;4950;46.042;14.472;2023-11-18T15:07:45;14.57;;;7.88;;
9821;SDS011;4950;46.042;14.472;2023-11-18T15:10:14;17.00;;;8.50;;
9821;SDS011;4950;46.042;14.472;2023-11-18T15:12:45;17.17;;;9.57;;
9821;SDS011;4950;46.042;14.472;2023-11-18T15:15:12;18.45;;;8.95;;
9821;SDS011;4950;46.042;14.472;2023-11-18T15:17:43;21.92;;;13.55;;
9821;SDS011;4950;46.042;14.472;2023-11-18T15:20:11;37.58;;;23.00;;
9821;SDS011;4950;46.042;14.472;2023-11-18T15:22:39;34.95;;;16.27;;
9821;SDS011;4950;46.042;14.472;2023-11-18T15:25:09;23.73;;;11.32;;
9821;SDS011;4950;46.042;14.472;2023-11-18T15:27:37;18.23;;;8.90;;